sensor_id;sensor_type;location;lat;lon;timestamp;pressure;altitude;pressure_sealevel;temperature;humidity
23016;BME280;11674;52.428;13.584;2023-03-03T00:04:25;102076.50;;;1.85;76.21
23016;BME280;11674;52.428;13.584;2023-03-03T00:09:32;102086.56;;;1.85;76.49
23016;BME280;11674;52.428;13.584;2023-03-03T00:14:39;102093.16;;;1.90;76.57
23016;BME280;11674;52.428;13.584;2023-03-03T00:19:46;102100.91;;;1.87;76.21
23016;BME280;11674;52.428;13.584;2023-03-03T00:24:53;102094.28;;;1.75;76.43
23016;BME280;11674;52.428;13.584;2023-03-03T00:30:00;102088.69;;;1.83;76.56
23016;BME280;11674;52.428;13.584;2023-03-03T00:35:24;102087.47;;;1.92;76.63
23016;BME280;11674;52.428;13.584;2023-03-03T00:40:36;102070.88;;;2.00;76.56
23016;BME280;11674;52.428;13.584;2023-03-03T00:45:55;102063.78;;;2.12;76.56
23016;BME280;11674;52.428;13.584;2023-03-03T00:51:30;102066.75;;;2.17;76.59
23016;BME280;11674;52.428;13.584;2023-03-03T00:56:37;102051.63;;;2.21;76.67
23016;BME280;11674;52.428;13.584;2023-03-03T01:01:44;102049.13;;;2.26;76.39
23016;BME280;11674;52.428;13.584;2023-03-03T01:06:51;102050.75;;;2.20;76.59
23016;BME280;11674;52.428;13.584;2023-03-03T01:11:58;102043.38;;;2.14;76.27
23016;BME280;11674;52.428;13.584;2023-03-03T01:17:07;102044.63;;;2.12;76.67
23016;BME280;11674;52.428;13.584;2023-03-03T01:22:14;102044.88;;;2.17;76.67
23016;BME280;11674;52.428;13.584;2023-03-03T01:27:21;102039.63;;;2.22;76.60
23016;BME280;11674;52.428;13.584;2023-03-03T01:32:28;102030.59;;;2.28;76.75
23016;BME280;11674;52.428;13.584;2023-03-03T01:37:35;102035.19;;;2.21;76.29
23016;BME280;11674;52.428;13.584;2023-03-03T01:42:43;102022.31;;;2.08;76.43
23016;BME280;11674;52.428;13.584;2023-03-03T01:53:11;102011.16;;;2.10;76.52
23016;BME280;11674;52.428;13.584;2023-03-03T01:58:20;102020.66;;;2.14;76.74
23016;BME280;11674;52.428;13.584;2023-03-03T02:03:30;102012.69;;;2.25;76.68
23016;BME280;11674;52.428;13.584;2023-03-03T02:14:00;102011.00;;;2.24;76.49
23016;BME280;11674;52.428;13.584;2023-03-03T02:19:15;102033.53;;;2.20;76.53
23016;BME280;11674;52.428;13.584;2023-03-03T02:29:31;102016.91;;;2.28;76.66
23016;BME280;11674;52.428;13.584;2023-03-03T02:34:45;102033.34;;;2.34;76.67
23016;BME280;11674;52.428;13.584;2023-03-03T02:39:56;102024.28;;;2.34;76.70
23016;BME280;11674;52.428;13.584;2023-03-03T02:45:03;102028.28;;;2.31;76.75
23016;BME280;11674;52.428;13.584;2023-03-03T02:50:10;102022.00;;;2.37;76.73
23016;BME280;11674;52.428;13.584;2023-03-03T02:55:17;102019.69;;;2.41;76.76
23016;BME280;11674;52.428;13.584;2023-03-03T03:00:24;102024.13;;;2.42;76.60
23016;BME280;11674;52.428;13.584;2023-03-03T03:05:31;102009.41;;;2.49;76.66
23016;BME280;11674;52.428;13.584;2023-03-03T03:10:43;102027.91;;;2.47;76.77
23016;BME280;11674;52.428;13.584;2023-03-03T03:15:50;102027.94;;;2.54;76.86
23016;BME280;11674;52.428;13.584;2023-03-03T03:21:10;102024.78;;;2.63;76.85
23016;BME280;11674;52.428;13.584;2023-03-03T03:26:18;102039.56;;;2.69;76.76
23016;BME280;11674;52.428;13.584;2023-03-03T03:31:25;102052.00;;;2.71;76.66
23016;BME280;11674;52.428;13.584;2023-03-03T03:36:33;102038.72;;;2.75;76.58
23016;BME280;11674;52.428;13.584;2023-03-03T03:41:41;102051.38;;;2.69;76.57
23016;BME280;11674;52.428;13.584;2023-03-03T03:46:51;102055.38;;;2.67;76.67
23016;BME280;11674;52.428;13.584;2023-03-03T03:52:04;102039.34;;;2.70;76.84
23016;BME280;11674;52.428;13.584;2023-03-03T03:57:11;102039.78;;;2.74;76.85
23016;BME280;11674;52.428;13.584;2023-03-03T04:02:19;102028.38;;;2.77;76.94
23016;BME280;11674;52.428;13.584;2023-03-03T04:07:26;102011.97;;;2.70;76.88
23016;BME280;11674;52.428;13.584;2023-03-03T04:12:35;102021.03;;;2.77;76.95
23016;BME280;11674;52.428;13.584;2023-03-03T04:17:46;102007.75;;;2.81;76.90
23016;BME280;11674;52.428;13.584;2023-03-03T04:23:00;102000.63;;;2.86;76.91
23016;BME280;11674;52.428;13.584;2023-03-03T04:28:24;101999.94;;;2.84;76.90
23016;BME280;11674;52.428;13.584;2023-03-03T04:33:36;102003.56;;;2.85;76.76
23016;BME280;11674;52.428;13.584;2023-03-03T04:38:50;102005.88;;;2.81;77.00
23016;BME280;11674;52.428;13.584;2023-03-03T04:43:57;101997.84;;;2.80;76.91
23016;BME280;11674;52.428;13.584;2023-03-03T04:49:04;102001.22;;;2.69;76.75
23016;BME280;11674;52.428;13.584;2023-03-03T04:54:11;102020.16;;;2.64;76.87
23016;BME280;11674;52.428;13.584;2023-03-03T04:59:18;102007.94;;;2.60;76.85
23016;BME280;11674;52.428;13.584;2023-03-03T05:04:25;102001.81;;;2.51;76.82
23016;BME280;11674;52.428;13.584;2023-03-03T05:09:32;102003.50;;;2.46;77.06
23016;BME280;11674;52.428;13.584;2023-03-03T05:14:39;101992.09;;;2.42;76.83
23016;BME280;11674;52.428;13.584;2023-03-03T05:19:46;101995.47;;;2.38;76.96
23016;BME280;11674;52.428;13.584;2023-03-03T05:24:53;101998.16;;;2.31;76.71
23016;BME280;11674;52.428;13.584;2023-03-03T05:30:00;102009.94;;;2.19;76.74
23016;BME280;11674;52.428;13.584;2023-03-03T05:35:07;102002.75;;;2.11;76.76
23016;BME280;11674;52.428;13.584;2023-03-03T05:40:14;102003.81;;;2.17;76.79
23016;BME280;11674;52.428;13.584;2023-03-03T05:45:21;102013.47;;;2.13;76.86
23016;BME280;11674;52.428;13.584;2023-03-03T05:50:28;102035.16;;;2.08;76.84
23016;BME280;11674;52.428;13.584;2023-03-03T05:55:35;102040.78;;;2.00;76.86
23016;BME280;11674;52.428;13.584;2023-03-03T06:00:42;102031.50;;;1.94;76.75
23016;BME280;11674;52.428;13.584;2023-03-03T06:05:49;102033.16;;;1.89;76.80
23016;BME280;11674;52.428;13.584;2023-03-03T06:10:56;102041.75;;;1.86;76.78
23016;BME280;11674;52.428;13.584;2023-03-03T06:16:03;102042.84;;;1.91;76.86
23016;BME280;11674;52.428;13.584;2023-03-03T06:21:10;102035.91;;;1.89;76.56
23016;BME280;11674;52.428;13.584;2023-03-03T06:26:17;102049.72;;;1.81;76.55
23016;BME280;11674;52.428;13.584;2023-03-03T06:31:25;102047.84;;;1.81;77.12
23016;BME280;11674;52.428;13.584;2023-03-03T06:36:32;102058.84;;;1.94;77.06
23016;BME280;11674;52.428;13.584;2023-03-03T06:41:46;102059.94;;;2.00;76.92
23016;BME280;11674;52.428;13.584;2023-03-03T06:46:53;102066.00;;;1.89;76.63
23016;BME280;11674;52.428;13.584;2023-03-03T06:52:01;102063.63;;;1.86;77.05
23016;BME280;11674;52.428;13.584;2023-03-03T06:57:19;102075.88;;;1.90;77.08
23016;BME280;11674;52.428;13.584;2023-03-03T07:02:29;102080.59;;;2.02;77.01
23016;BME280;11674;52.428;13.584;2023-03-03T07:07:36;102103.75;;;2.06;76.74
23016;BME280;11674;52.428;13.584;2023-03-03T07:12:43;102088.16;;;2.07;77.20
23016;BME280;11674;52.428;13.584;2023-03-03T07:17:54;102094.06;;;2.04;76.94
23016;BME280;11674;52.428;13.584;2023-03-03T07:23:36;102089.41;;;1.98;77.04
23016;BME280;11674;52.428;13.584;2023-03-03T07:28:42;102099.28;;;1.99;77.08
23016;BME280;11674;52.428;13.584;2023-03-03T07:33:50;102102.28;;;2.04;77.10
23016;BME280;11674;52.428;13.584;2023-03-03T07:38:59;102110.72;;;2.09;76.96
23016;BME280;11674;52.428;13.584;2023-03-03T07:44:18;102110.72;;;2.09;77.05
23016;BME280;11674;52.428;13.584;2023-03-03T07:54:38;102112.91;;;2.26;77.24
23016;BME280;11674;52.428;13.584;2023-03-03T08:10:43;102119.59;;;2.17;77.05
23016;BME280;11674;52.428;13.584;2023-03-03T08:15:58;102115.63;;;2.20;77.10
23016;BME280;11674;52.428;13.584;2023-03-03T08:26:25;102119.06;;;2.35;77.37
23016;BME280;11674;52.428;13.584;2023-03-03T08:31:33;102114.84;;;2.39;77.05
23016;BME280;11674;52.428;13.584;2023-03-03T08:36:40;102126.22;;;2.36;77.27
23016;BME280;11674;52.428;13.584;2023-03-03T08:41:47;102111.91;;;2.40;77.20
23016;BME280;11674;52.428;13.584;2023-03-03T08:46:54;102126.91;;;2.44;77.33
23016;BME280;11674;52.428;13.584;2023-03-03T08:52:01;102124.56;;;2.41;77.18
23016;BME280;11674;52.428;13.584;2023-03-03T08:57:08;102131.75;;;2.49;77.33
23016;BME280;11674;52.428;13.584;2023-03-03T09:02:15;102134.56;;;2.62;77.21
23016;BME280;11674;52.428;13.584;2023-03-03T09:07:22;102129.47;;;2.59;77.08
23016;BME280;11674;52.428;13.584;2023-03-03T09:12:34;102122.72;;;2.55;77.16
23016;BME280;11674;52.428;13.584;2023-03-03T09:17:42;102117.69;;;2.65;77.36
23016;BME280;11674;52.428;13.584;2023-03-03T09:22:49;102112.03;;;2.66;77.21
23016;BME280;11674;52.428;13.584;2023-03-03T09:27:57;102122.38;;;2.77;77.66
23016;BME280;11674;52.428;13.584;2023-03-03T09:38:32;102122.25;;;3.18;77.46
23016;BME280;11674;52.428;13.584;2023-03-03T09:49:14;102116.16;;;3.29;77.66
23016;BME280;11674;52.428;13.584;2023-03-03T10:06:00;102111.72;;;3.28;77.54
23016;BME280;11674;52.428;13.584;2023-03-03T10:11:18;102120.63;;;3.49;77.77
23016;BME280;11674;52.428;13.584;2023-03-03T10:22:20;102122.03;;;3.78;77.67
23016;BME280;11674;52.428;13.584;2023-03-03T10:33:11;102114.22;;;3.88;77.70
23016;BME280;11674;52.428;13.584;2023-03-03T10:38:43;102112.75;;;3.98;77.70
23016;BME280;11674;52.428;13.584;2023-03-03T10:49:41;102110.97;;;4.30;77.60
23016;BME280;11674;52.428;13.584;2023-03-03T11:06:05;102114.03;;;4.53;77.39
23016;BME280;11674;52.428;13.584;2023-03-03T11:11:52;102110.06;;;4.49;77.39
23016;BME280;11674;52.428;13.584;2023-03-03T11:22:44;102109.75;;;4.70;77.27
23016;BME280;11674;52.428;13.584;2023-03-03T11:28:30;102108.22;;;4.80;77.33
23016;BME280;11674;52.428;13.584;2023-03-03T11:34:00;102100.88;;;5.05;77.54
23016;BME280;11674;52.428;13.584;2023-03-03T11:39:15;102104.09;;;5.27;77.35
23016;BME280;11674;52.428;13.584;2023-03-03T11:44:37;102097.03;;;5.37;77.26
23016;BME280;11674;52.428;13.584;2023-03-03T11:49:55;102101.13;;;5.28;77.15
23016;BME280;11674;52.428;13.584;2023-03-03T12:00:32;102079.63;;;5.68;77.33
23016;BME280;11674;52.428;13.584;2023-03-03T12:05:54;102077.63;;;5.57;76.80
23016;BME280;11674;52.428;13.584;2023-03-03T12:27:04;102039.41;;;5.67;76.87
23016;BME280;11674;52.428;13.584;2023-03-03T12:32:34;102040.72;;;5.64;76.50
23016;BME280;11674;52.428;13.584;2023-03-03T12:37:56;102031.59;;;5.64;76.78
23016;BME280;11674;52.428;13.584;2023-03-03T12:48:47;102027.50;;;5.73;76.88
23016;BME280;11674;52.428;13.584;2023-03-03T13:05:05;102015.38;;;5.80;76.49
23016;BME280;11674;52.428;13.584;2023-03-03T13:16:29;102002.84;;;5.84;76.47
23016;BME280;11674;52.428;13.584;2023-03-03T13:27:03;101988.81;;;5.86;76.39
23016;BME280;11674;52.428;13.584;2023-03-03T13:37:29;101986.00;;;5.92;76.82
23016;BME280;11674;52.428;13.584;2023-03-03T13:58:38;101973.34;;;6.21;76.47
23016;BME280;11674;52.428;13.584;2023-03-03T14:20:27;101960.69;;;6.31;76.54
23016;BME280;11674;52.428;13.584;2023-03-03T14:31:37;101948.56;;;6.21;76.45
23016;BME280;11674;52.428;13.584;2023-03-03T14:36:45;101941.00;;;6.16;76.15
23016;BME280;11674;52.428;13.584;2023-03-03T14:41:52;101939.63;;;6.07;75.85
23016;BME280;11674;52.428;13.584;2023-03-03T15:08:10;101901.22;;;6.42;76.07
23016;BME280;11674;52.428;13.584;2023-03-03T15:18:27;101915.50;;;6.21;75.70
23016;BME280;11674;52.428;13.584;2023-03-03T15:23:58;101904.13;;;6.17;75.78
23016;BME280;11674;52.428;13.584;2023-03-03T16:01:16;101873.75;;;6.35;75.58
23016;BME280;11674;52.428;13.584;2023-03-03T16:17:37;101862.59;;;6.30;75.50
23016;BME280;11674;52.428;13.584;2023-03-03T16:28:07;101866.56;;;6.34;75.55
23016;BME280;11674;52.428;13.584;2023-03-03T16:33:23;101875.31;;;6.43;75.63
23016;BME280;11674;52.428;13.584;2023-03-03T16:44:32;101875.03;;;6.21;75.39
23016;BME280;11674;52.428;13.584;2023-03-03T16:55:31;101853.38;;;5.95;75.37
23016;BME280;11674;52.428;13.584;2023-03-03T17:06:32;101862.66;;;5.83;75.42
23016;BME280;11674;52.428;13.584;2023-03-03T17:12:07;101863.19;;;5.73;75.40
23016;BME280;11674;52.428;13.584;2023-03-03T17:22:47;101853.19;;;5.61;75.37
23016;BME280;11674;52.428;13.584;2023-03-03T17:33:36;101848.91;;;5.47;75.25
23016;BME280;11674;52.428;13.584;2023-03-03T17:39:05;101850.69;;;5.41;75.31
23016;BME280;11674;52.428;13.584;2023-03-03T17:44:24;101850.28;;;5.38;75.27
23016;BME280;11674;52.428;13.584;2023-03-03T18:00:32;101858.38;;;5.33;75.34
23016;BME280;11674;52.428;13.584;2023-03-03T18:33:10;101827.19;;;5.57;75.43
23016;BME280;11674;52.428;13.584;2023-03-03T18:38:24;101825.91;;;5.59;75.32
23016;BME280;11674;52.428;13.584;2023-03-03T18:49:01;101824.00;;;5.60;75.21
23016;BME280;11674;52.428;13.584;2023-03-03T19:04:53;101817.41;;;5.61;75.16
23016;BME280;11674;52.428;13.584;2023-03-03T19:10:07;101827.56;;;5.60;74.89
23016;BME280;11674;52.428;13.584;2023-03-03T19:31:48;101797.78;;;5.57;74.80
23016;BME280;11674;52.428;13.584;2023-03-03T19:42:45;101806.72;;;5.53;74.72
23016;BME280;11674;52.428;13.584;2023-03-03T19:48:53;101793.66;;;5.48;74.71
23016;BME280;11674;52.428;13.584;2023-03-03T19:59:37;101789.47;;;5.46;74.75
23016;BME280;11674;52.428;13.584;2023-03-03T20:15:27;101789.28;;;5.59;74.64
23016;BME280;11674;52.428;13.584;2023-03-03T20:20:55;101782.25;;;5.63;74.62
23016;BME280;11674;52.428;13.584;2023-03-03T20:26:21;101793.84;;;5.65;74.54
23016;BME280;11674;52.428;13.584;2023-03-03T20:31:47;101770.28;;;5.69;74.62
23016;BME280;11674;52.428;13.584;2023-03-03T20:43:07;101768.31;;;5.76;74.47
23016;BME280;11674;52.428;13.584;2023-03-03T20:54:25;101758.72;;;5.78;74.39
23016;BME280;11674;52.428;13.584;2023-03-03T20:59:59;101762.31;;;5.79;74.51
23016;BME280;11674;52.428;13.584;2023-03-03T21:05:18;101764.16;;;5.85;74.53
23016;BME280;11674;52.428;13.584;2023-03-03T21:10:35;101749.00;;;5.94;74.31
23016;BME280;11674;52.428;13.584;2023-03-03T21:15:42;101744.81;;;6.03;74.33
23016;BME280;11674;52.428;13.584;2023-03-03T21:20:59;101738.59;;;6.07;74.38
23016;BME280;11674;52.428;13.584;2023-03-03T21:26:06;101738.09;;;6.10;74.38
23016;BME280;11674;52.428;13.584;2023-03-03T21:31:14;101717.88;;;6.05;74.03
23016;BME280;11674;52.428;13.584;2023-03-03T21:41:52;101744.34;;;6.06;73.55
23016;BME280;11674;52.428;13.584;2023-03-03T21:47:00;101729.34;;;6.02;73.36
23016;BME280;11674;52.428;13.584;2023-03-03T21:52:08;101712.84;;;6.02;73.17
23016;BME280;11674;52.428;13.584;2023-03-03T21:57:15;101708.78;;;6.04;73.17
23016;BME280;11674;52.428;13.584;2023-03-03T22:02:22;101717.41;;;6.08;73.12
23016;BME280;11674;52.428;13.584;2023-03-03T22:07:29;101709.16;;;6.08;73.18
23016;BME280;11674;52.428;13.584;2023-03-03T22:12:36;101709.16;;;6.08;72.86
23016;BME280;11674;52.428;13.584;2023-03-03T22:17:43;101700.63;;;6.09;72.85
23016;BME280;11674;52.428;13.584;2023-03-03T22:22:50;101689.63;;;6.09;72.87
23016;BME280;11674;52.428;13.584;2023-03-03T22:27:57;101681.63;;;6.08;72.90
23016;BME280;11674;52.428;13.584;2023-03-03T22:33:04;101677.44;;;6.05;72.67
23016;BME280;11674;52.428;13.584;2023-03-03T22:38:11;101669.75;;;6.07;72.71
23016;BME280;11674;52.428;13.584;2023-03-03T22:43:18;101676.81;;;6.03;72.53
23016;BME280;11674;52.428;13.584;2023-03-03T22:48:26;101679.19;;;6.00;72.64
23016;BME280;11674;52.428;13.584;2023-03-03T22:53:33;101678.22;;;5.94;72.60
23016;BME280;11674;52.428;13.584;2023-03-03T22:58:40;101659.91;;;5.88;72.52
23016;BME280;11674;52.428;13.584;2023-03-03T23:03:47;101646.88;;;5.84;72.38
23016;BME280;11674;52.428;13.584;2023-03-03T23:08:54;101647.09;;;5.82;72.27
23016;BME280;11674;52.428;13.584;2023-03-03T23:14:01;101632.66;;;5.87;72.23
23016;BME280;11674;52.428;13.584;2023-03-03T23:19:08;101609.75;;;5.86;72.41
23016;BME280;11674;52.428;13.584;2023-03-03T23:24:15;101610.00;;;5.85;72.34
23016;BME280;11674;52.428;13.584;2023-03-03T23:29:23;101600.31;;;5.82;72.48
23016;BME280;11674;52.428;13.584;2023-03-03T23:34:31;101585.09;;;5.68;72.42
23016;BME280;11674;52.428;13.584;2023-03-03T23:39:38;101594.28;;;5.51;72.34
23016;BME280;11674;52.428;13.584;2023-03-03T23:44:45;101575.69;;;5.35;72.20
23016;BME280;11674;52.428;13.584;2023-03-03T23:49:52;101582.00;;;5.24;72.13
23016;BME280;11674;52.428;13.584;2023-03-03T23:54:59;101583.06;;;5.11;72.18
